sensor_id;sensor_type;location;lat;lon;timestamp;P1;durP1;ratioP1;P2;durP2;ratioP2
55455;SDS011;63021;52.836;6.376;2023-07-16T00:01:57;8.57;;;2.30;;
55455;SDS011;63021;52.836;6.376;2023-07-16T00:04:22;13.50;;;2.80;;
55455;SDS011;63021;52.836;6.376;2023-07-16T00:06:49;5.40;;;2.50;;
55455;SDS011;63021;52.836;6.376;2023-07-16T00:09:15;7.70;;;1.90;;
55455;SDS011;63021;52.836;6.376;2023-07-16T00:11:41;7.78;;;2.50;;
55455;SDS011;63021;52.836;6.376;2023-07-16T00:14:07;7.13;;;2.75;;
55455;SDS011;63021;52.836;6.376;2023-07-16T00:16:32;5.38;;;2.25;;
55455;SDS011;63021;52.836;6.376;2023-07-16T00:18:58;8.85;;;2.15;;
55455;SDS011;63021;52.836;6.376;2023-07-16T00:21:23;8.40;;;2.30;;
55455;SDS011;63021;52.836;6.376;2023-07-16T00:23:49;7.78;;;2.42;;
55455;SDS011;63021;52.836;6.376;2023-07-16T00:26:15;5.75;;;2.70;;
55455;SDS011;63021;52.836;6.376;2023-07-16T00:28:40;9.05;;;2.40;;
55455;SDS011;63021;52.836;6.376;2023-07-16T00:31:06;7.75;;;3.08;;
55455;SDS011;63021;52.836;6.376;2023-07-16T00:33:32;8.07;;;3.15;;
55455;SDS011;63021;52.836;6.376;2023-07-16T00:35:57;8.55;;;3.20;;
55455;SDS011;63021;52.836;6.376;2023-07-16T00:38:23;9.95;;;2.30;;
55455;SDS011;63021;52.836;6.376;2023-07-16T00:40:48;10.85;;;2.55;;
55455;SDS011;63021;52.836;6.376;2023-07-16T00:43:13;14.57;;;2.75;;
55455;SDS011;63021;52.836;6.376;2023-07-16T00:45:39;9.77;;;2.75;;
55455;SDS011;63021;52.836;6.376;2023-07-16T00:48:05;10.00;;;2.53;;
55455;SDS011;63021;52.836;6.376;2023-07-16T00:50:31;8.07;;;2.38;;
55455;SDS011;63021;52.836;6.376;2023-07-16T00:53:02;5.18;;;2.20;;
55455;SDS011;63021;52.836;6.376;2023-07-16T00:55:29;4.60;;;2.55;;
55455;SDS011;63021;52.836;6.376;2023-07-16T00:57:55;7.50;;;2.60;;
55455;SDS011;63021;52.836;6.376;2023-07-16T01:00:28;6.78;;;2.67;;
55455;SDS011;63021;52.836;6.376;2023-07-16T01:02:53;8.35;;;2.50;;
55455;SDS011;63021;52.836;6.376;2023-07-16T01:05:19;9.88;;;3.20;;
55455;SDS011;63021;52.836;6.376;2023-07-16T01:07:48;11.40;;;3.33;;
55455;SDS011;63021;52.836;6.376;2023-07-16T01:10:22;7.22;;;2.20;;
55455;SDS011;63021;52.836;6.376;2023-07-16T01:12:48;7.82;;;2.75;;
55455;SDS011;63021;52.836;6.376;2023-07-16T01:15:15;7.68;;;1.85;;
55455;SDS011;63021;52.836;6.376;2023-07-16T01:17:41;7.70;;;2.53;;
55455;SDS011;63021;52.836;6.376;2023-07-16T01:20:07;13.38;;;3.03;;
55455;SDS011;63021;52.836;6.376;2023-07-16T01:22:48;9.95;;;2.83;;
55455;SDS011;63021;52.836;6.376;2023-07-16T01:25:41;6.90;;;2.72;;
55455;SDS011;63021;52.836;6.376;2023-07-16T01:28:44;6.10;;;2.00;;
55455;SDS011;63021;52.836;6.376;2023-07-16T01:31:16;10.60;;;2.83;;
55455;SDS011;63021;52.836;6.376;2023-07-16T01:33:42;11.20;;;3.20;;
55455;SDS011;63021;52.836;6.376;2023-07-16T01:36:08;11.68;;;2.92;;
55455;SDS011;63021;52.836;6.376;2023-07-16T01:38:34;11.85;;;3.55;;
55455;SDS011;63021;52.836;6.376;2023-07-16T01:41:01;5.88;;;3.00;;
55455;SDS011;63021;52.836;6.376;2023-07-16T01:43:27;5.63;;;2.67;;
55455;SDS011;63021;52.836;6.376;2023-07-16T01:45:52;8.20;;;3.67;;
55455;SDS011;63021;52.836;6.376;2023-07-16T01:51:02;11.20;;;2.85;;
55455;SDS011;63021;52.836;6.376;2023-07-16T01:53:28;14.85;;;4.22;;
55455;SDS011;63021;52.836;6.376;2023-07-16T01:55:53;6.65;;;2.83;;
55455;SDS011;63021;52.836;6.376;2023-07-16T01:58:19;10.10;;;3.50;;
55455;SDS011;63021;52.836;6.376;2023-07-16T02:00:44;10.63;;;3.22;;
55455;SDS011;63021;52.836;6.376;2023-07-16T02:03:11;9.75;;;3.15;;
55455;SDS011;63021;52.836;6.376;2023-07-16T02:05:36;10.25;;;3.22;;
55455;SDS011;63021;52.836;6.376;2023-07-16T02:08:02;12.35;;;3.88;;
55455;SDS011;63021;52.836;6.376;2023-07-16T02:10:28;8.93;;;3.35;;
55455;SDS011;63021;52.836;6.376;2023-07-16T02:12:53;9.05;;;3.78;;
55455;SDS011;63021;52.836;6.376;2023-07-16T02:15:18;12.98;;;5.50;;
55455;SDS011;63021;52.836;6.376;2023-07-16T02:17:44;7.28;;;3.17;;
55455;SDS011;63021;52.836;6.376;2023-07-16T02:20:10;6.57;;;3.10;;
55455;SDS011;63021;52.836;6.376;2023-07-16T02:22:37;8.02;;;3.17;;
55455;SDS011;63021;52.836;6.376;2023-07-16T02:25:02;7.53;;;3.85;;
55455;SDS011;63021;52.836;6.376;2023-07-16T02:27:29;8.60;;;3.15;;
55455;SDS011;63021;52.836;6.376;2023-07-16T02:29:54;8.38;;;3.90;;
55455;SDS011;63021;52.836;6.376;2023-07-16T02:32:19;10.48;;;3.85;;
55455;SDS011;63021;52.836;6.376;2023-07-16T02:34:45;10.45;;;4.35;;
55455;SDS011;63021;52.836;6.376;2023-07-16T02:37:10;9.73;;;3.35;;
55455;SDS011;63021;52.836;6.376;2023-07-16T02:39:38;9.07;;;3.08;;
55455;SDS011;63021;52.836;6.376;2023-07-16T02:42:04;9.45;;;3.58;;
55455;SDS011;63021;52.836;6.376;2023-07-16T02:44:29;6.78;;;3.10;;
55455;SDS011;63021;52.836;6.376;2023-07-16T02:46:55;12.07;;;3.80;;
55455;SDS011;63021;52.836;6.376;2023-07-16T02:49:20;7.85;;;2.92;;
55455;SDS011;63021;52.836;6.376;2023-07-16T02:51:46;8.02;;;3.50;;
55455;SDS011;63021;52.836;6.376;2023-07-16T02:54:11;9.85;;;3.42;;
55455;SDS011;63021;52.836;6.376;2023-07-16T02:56:37;6.55;;;3.20;;
55455;SDS011;63021;52.836;6.376;2023-07-16T02:59:02;17.27;;;4.30;;
55455;SDS011;63021;52.836;6.376;2023-07-16T03:01:27;8.65;;;4.13;;
55455;SDS011;63021;52.836;6.376;2023-07-16T03:03:53;10.90;;;3.78;;
55455;SDS011;63021;52.836;6.376;2023-07-16T03:06:18;8.98;;;3.75;;
55455;SDS011;63021;52.836;6.376;2023-07-16T03:08:43;8.73;;;3.53;;
55455;SDS011;63021;52.836;6.376;2023-07-16T03:11:10;7.78;;;3.67;;
55455;SDS011;63021;52.836;6.376;2023-07-16T03:13:37;11.60;;;3.70;;
55455;SDS011;63021;52.836;6.376;2023-07-16T03:16:02;14.18;;;4.95;;
55455;SDS011;63021;52.836;6.376;2023-07-16T03:18:28;8.25;;;3.90;;
55455;SDS011;63021;52.836;6.376;2023-07-16T03:20:55;9.93;;;3.50;;
55455;SDS011;63021;52.836;6.376;2023-07-16T03:23:21;10.77;;;4.10;;
55455;SDS011;63021;52.836;6.376;2023-07-16T03:25:46;9.50;;;3.88;;
55455;SDS011;63021;52.836;6.376;2023-07-16T03:28:12;13.20;;;3.88;;
55455;SDS011;63021;52.836;6.376;2023-07-16T03:30:38;10.02;;;3.92;;
55455;SDS011;63021;52.836;6.376;2023-07-16T03:33:04;10.10;;;4.07;;
55455;SDS011;63021;52.836;6.376;2023-07-16T03:35:29;8.70;;;4.10;;
55455;SDS011;63021;52.836;6.376;2023-07-16T03:37:55;10.63;;;4.10;;
55455;SDS011;63021;52.836;6.376;2023-07-16T03:40:23;9.55;;;3.72;;
55455;SDS011;63021;52.836;6.376;2023-07-16T03:42:49;10.43;;;3.70;;
55455;SDS011;63021;52.836;6.376;2023-07-16T03:45:15;8.75;;;4.32;;
55455;SDS011;63021;52.836;6.376;2023-07-16T03:47:40;10.07;;;3.80;;
55455;SDS011;63021;52.836;6.376;2023-07-16T03:50:06;12.45;;;4.03;;
55455;SDS011;63021;52.836;6.376;2023-07-16T03:52:32;11.80;;;3.75;;
55455;SDS011;63021;52.836;6.376;2023-07-16T03:54:58;10.48;;;4.10;;
55455;SDS011;63021;52.836;6.376;2023-07-16T03:57:23;13.93;;;4.68;;
55455;SDS011;63021;52.836;6.376;2023-07-16T03:59:49;12.10;;;4.30;;
55455;SDS011;63021;52.836;6.376;2023-07-16T04:02:14;8.60;;;4.18;;
55455;SDS011;63021;52.836;6.376;2023-07-16T04:04:40;11.52;;;4.25;;
55455;SDS011;63021;52.836;6.376;2023-07-16T04:07:05;10.10;;;4.43;;
55455;SDS011;63021;52.836;6.376;2023-07-16T04:09:31;10.50;;;5.05;;
55455;SDS011;63021;52.836;6.376;2023-07-16T04:11:56;8.98;;;4.28;;
55455;SDS011;63021;52.836;6.376;2023-07-16T04:14:22;11.32;;;4.68;;
55455;SDS011;63021;52.836;6.376;2023-07-16T04:16:47;8.35;;;3.97;;
55455;SDS011;63021;52.836;6.376;2023-07-16T04:19:13;8.85;;;4.72;;
55455;SDS011;63021;52.836;6.376;2023-07-16T04:21:38;11.52;;;5.25;;
55455;SDS011;63021;52.836;6.376;2023-07-16T04:24:04;11.98;;;4.25;;
55455;SDS011;63021;52.836;6.376;2023-07-16T04:26:30;16.33;;;5.15;;
55455;SDS011;63021;52.836;6.376;2023-07-16T04:28:56;12.27;;;4.30;;
55455;SDS011;63021;52.836;6.376;2023-07-16T04:31:22;14.77;;;4.28;;
55455;SDS011;63021;52.836;6.376;2023-07-16T04:33:48;13.18;;;4.88;;
55455;SDS011;63021;52.836;6.376;2023-07-16T04:36:13;10.70;;;4.55;;
55455;SDS011;63021;52.836;6.376;2023-07-16T04:38:38;14.88;;;4.60;;
55455;SDS011;63021;52.836;6.376;2023-07-16T04:41:04;9.15;;;4.00;;
55455;SDS011;63021;52.836;6.376;2023-07-16T04:43:29;8.02;;;3.55;;
55455;SDS011;63021;52.836;6.376;2023-07-16T04:45:55;13.10;;;3.97;;
55455;SDS011;63021;52.836;6.376;2023-07-16T04:48:20;8.70;;;4.05;;
55455;SDS011;63021;52.836;6.376;2023-07-16T04:50:46;13.35;;;3.92;;
55455;SDS011;63021;52.836;6.376;2023-07-16T04:53:11;8.43;;;4.22;;
55455;SDS011;63021;52.836;6.376;2023-07-16T04:55:37;9.40;;;3.90;;
55455;SDS011;63021;52.836;6.376;2023-07-16T04:58:03;15.70;;;5.47;;
55455;SDS011;63021;52.836;6.376;2023-07-16T05:00:29;11.13;;;3.78;;
55455;SDS011;63021;52.836;6.376;2023-07-16T05:02:56;10.63;;;4.97;;
55455;SDS011;63021;52.836;6.376;2023-07-16T05:05:21;9.02;;;3.38;;
55455;SDS011;63021;52.836;6.376;2023-07-16T05:07:46;10.95;;;3.15;;
55455;SDS011;63021;52.836;6.376;2023-07-16T05:10:12;13.38;;;4.20;;
55455;SDS011;63021;52.836;6.376;2023-07-16T05:12:38;9.95;;;4.35;;
55455;SDS011;63021;52.836;6.376;2023-07-16T05:15:03;8.40;;;3.70;;
55455;SDS011;63021;52.836;6.376;2023-07-16T05:17:29;8.38;;;3.17;;
55455;SDS011;63021;52.836;6.376;2023-07-16T05:19:54;9.32;;;4.47;;
55455;SDS011;63021;52.836;6.376;2023-07-16T05:22:19;8.27;;;3.30;;
55455;SDS011;63021;52.836;6.376;2023-07-16T05:24:45;7.45;;;3.33;;
55455;SDS011;63021;52.836;6.376;2023-07-16T05:27:10;10.20;;;3.38;;
55455;SDS011;63021;52.836;6.376;2023-07-16T05:29:36;9.13;;;3.80;;
55455;SDS011;63021;52.836;6.376;2023-07-16T05:32:02;6.72;;;3.08;;
55455;SDS011;63021;52.836;6.376;2023-07-16T05:34:28;10.60;;;4.05;;
55455;SDS011;63021;52.836;6.376;2023-07-16T05:36:54;7.00;;;4.00;;
55455;SDS011;63021;52.836;6.376;2023-07-16T05:39:20;12.75;;;3.85;;
55455;SDS011;63021;52.836;6.376;2023-07-16T05:41:46;7.88;;;3.35;;
55455;SDS011;63021;52.836;6.376;2023-07-16T05:44:11;11.90;;;3.67;;
55455;SDS011;63021;52.836;6.376;2023-07-16T05:46:37;12.48;;;3.90;;
55455;SDS011;63021;52.836;6.376;2023-07-16T05:49:02;10.45;;;4.18;;
55455;SDS011;63021;52.836;6.376;2023-07-16T05:51:27;10.07;;;4.57;;
55455;SDS011;63021;52.836;6.376;2023-07-16T05:53:53;11.05;;;3.42;;
55455;SDS011;63021;52.836;6.376;2023-07-16T05:56:18;9.75;;;3.65;;
55455;SDS011;63021;52.836;6.376;2023-07-16T05:58:44;8.45;;;3.97;;
55455;SDS011;63021;52.836;6.376;2023-07-16T06:01:09;10.45;;;5.10;;
55455;SDS011;63021;52.836;6.376;2023-07-16T06:03:35;9.43;;;4.28;;
55455;SDS011;63021;52.836;6.376;2023-07-16T06:06:00;10.43;;;4.10;;
55455;SDS011;63021;52.836;6.376;2023-07-16T06:08:25;13.38;;;4.00;;
55455;SDS011;63021;52.836;6.376;2023-07-16T06:10:51;15.35;;;4.00;;
55455;SDS011;63021;52.836;6.376;2023-07-16T06:13:16;8.70;;;3.50;;
55455;SDS011;63021;52.836;6.376;2023-07-16T06:15:42;10.80;;;4.53;;
55455;SDS011;63021;52.836;6.376;2023-07-16T06:18:08;7.93;;;3.90;;
55455;SDS011;63021;52.836;6.376;2023-07-16T06:20:34;8.77;;;4.72;;
55455;SDS011;63021;52.836;6.376;2023-07-16T06:22:59;11.45;;;4.00;;
55455;SDS011;63021;52.836;6.376;2023-07-16T06:25:24;11.88;;;5.00;;
55455;SDS011;63021;52.836;6.376;2023-07-16T06:27:50;9.88;;;4.60;;
55455;SDS011;63021;52.836;6.376;2023-07-16T06:30:15;15.60;;;5.65;;
55455;SDS011;63021;52.836;6.376;2023-07-16T06:32:40;9.20;;;4.75;;
55455;SDS011;63021;52.836;6.376;2023-07-16T06:35:07;8.75;;;4.30;;
55455;SDS011;63021;52.836;6.376;2023-07-16T06:37:33;8.18;;;3.95;;
55455;SDS011;63021;52.836;6.376;2023-07-16T06:39:58;10.35;;;4.20;;
55455;SDS011;63021;52.836;6.376;2023-07-16T06:42:24;8.43;;;4.25;;
55455;SDS011;63021;52.836;6.376;2023-07-16T06:44:49;8.75;;;4.60;;
55455;SDS011;63021;52.836;6.376;2023-07-16T06:47:14;10.93;;;5.03;;
55455;SDS011;63021;52.836;6.376;2023-07-16T06:49:40;9.43;;;4.53;;
55455;SDS011;63021;52.836;6.376;2023-07-16T06:52:06;12.50;;;4.93;;
55455;SDS011;63021;52.836;6.376;2023-07-16T06:54:32;8.23;;;4.05;;
55455;SDS011;63021;52.836;6.376;2023-07-16T06:56:57;7.75;;;4.22;;
55455;SDS011;63021;52.836;6.376;2023-07-16T06:59:23;11.55;;;4.53;;
55455;SDS011;63021;52.836;6.376;2023-07-16T07:01:48;7.90;;;4.50;;
55455;SDS011;63021;52.836;6.376;2023-07-16T07:04:14;10.65;;;4.70;;
55455;SDS011;63021;52.836;6.376;2023-07-16T07:06:39;13.07;;;4.80;;
55455;SDS011;63021;52.836;6.376;2023-07-16T07:09:05;6.57;;;4.25;;
55455;SDS011;63021;52.836;6.376;2023-07-16T07:11:31;9.75;;;4.40;;
55455;SDS011;63021;52.836;6.376;2023-07-16T07:13:56;9.88;;;4.65;;
55455;SDS011;63021;52.836;6.376;2023-07-16T07:16:22;13.48;;;4.57;;
55455;SDS011;63021;52.836;6.376;2023-07-16T07:18:48;8.23;;;4.30;;
55455;SDS011;63021;52.836;6.376;2023-07-16T07:21:13;12.68;;;4.90;;
55455;SDS011;63021;52.836;6.376;2023-07-16T07:23:39;10.10;;;4.30;;
55455;SDS011;63021;52.836;6.376;2023-07-16T07:26:05;8.88;;;5.25;;
55455;SDS011;63021;52.836;6.376;2023-07-16T07:28:31;12.88;;;5.15;;
55455;SDS011;63021;52.836;6.376;2023-07-16T07:30:56;13.93;;;5.43;;
55455;SDS011;63021;52.836;6.376;2023-07-16T07:33:21;11.57;;;4.95;;
55455;SDS011;63021;52.836;6.376;2023-07-16T07:35:47;9.88;;;4.72;;
55455;SDS011;63021;52.836;6.376;2023-07-16T07:38:12;9.52;;;4.53;;
55455;SDS011;63021;52.836;6.376;2023-07-16T07:40:38;11.75;;;4.50;;
55455;SDS011;63021;52.836;6.376;2023-07-16T07:43:03;9.07;;;4.25;;
55455;SDS011;63021;52.836;6.376;2023-07-16T07:45:28;9.15;;;5.03;;
55455;SDS011;63021;52.836;6.376;2023-07-16T07:47:54;8.25;;;3.63;;
55455;SDS011;63021;52.836;6.376;2023-07-16T07:50:19;11.43;;;5.05;;
55455;SDS011;63021;52.836;6.376;2023-07-16T07:52:47;9.13;;;4.43;;
55455;SDS011;63021;52.836;6.376;2023-07-16T07:55:12;11.98;;;4.35;;
55455;SDS011;63021;52.836;6.376;2023-07-16T07:57:38;7.90;;;3.85;;
55455;SDS011;63021;52.836;6.376;2023-07-16T08:00:03;10.52;;;3.95;;
55455;SDS011;63021;52.836;6.376;2023-07-16T08:02:29;9.40;;;4.28;;
55455;SDS011;63021;52.836;6.376;2023-07-16T08:04:54;7.38;;;3.78;;
55455;SDS011;63021;52.836;6.376;2023-07-16T08:07:21;12.10;;;5.13;;
55455;SDS011;63021;52.836;6.376;2023-07-16T08:09:47;7.57;;;4.05;;
55455;SDS011;63021;52.836;6.376;2023-07-16T08:12:13;13.00;;;4.50;;
55455;SDS011;63021;52.836;6.376;2023-07-16T08:14:39;10.07;;;4.53;;
55455;SDS011;63021;52.836;6.376;2023-07-16T08:17:05;13.07;;;4.53;;
55455;SDS011;63021;52.836;6.376;2023-07-16T08:19:30;11.82;;;4.90;;
55455;SDS011;63021;52.836;6.376;2023-07-16T08:21:56;9.18;;;4.47;;
55455;SDS011;63021;52.836;6.376;2023-07-16T08:24:21;9.32;;;4.43;;
55455;SDS011;63021;52.836;6.376;2023-07-16T08:26:47;14.43;;;4.97;;
55455;SDS011;63021;52.836;6.376;2023-07-16T08:29:12;8.82;;;4.93;;
55455;SDS011;63021;52.836;6.376;2023-07-16T08:31:37;9.55;;;4.38;;
55455;SDS011;63021;52.836;6.376;2023-07-16T08:34:03;11.77;;;5.30;;
55455;SDS011;63021;52.836;6.376;2023-07-16T08:36:28;13.75;;;4.68;;
55455;SDS011;63021;52.836;6.376;2023-07-16T08:38:54;9.32;;;5.75;;
55455;SDS011;63021;52.836;6.376;2023-07-16T08:41:19;8.80;;;4.60;;
55455;SDS011;63021;52.836;6.376;2023-07-16T08:43:45;9.65;;;4.32;;
55455;SDS011;63021;52.836;6.376;2023-07-16T08:46:12;8.88;;;4.22;;
55455;SDS011;63021;52.836;6.376;2023-07-16T08:48:40;8.75;;;5.32;;
55455;SDS011;63021;52.836;6.376;2023-07-16T08:51:05;9.13;;;4.35;;
55455;SDS011;63021;52.836;6.376;2023-07-16T08:53:32;15.52;;;4.60;;
55455;SDS011;63021;52.836;6.376;2023-07-16T08:55:58;10.43;;;3.85;;
55455;SDS011;63021;52.836;6.376;2023-07-16T08:58:24;7.70;;;3.80;;
55455;SDS011;63021;52.836;6.376;2023-07-16T09:00:50;6.35;;;3.85;;
55455;SDS011;63021;52.836;6.376;2023-07-16T09:03:16;10.30;;;4.50;;
55455;SDS011;63021;52.836;6.376;2023-07-16T09:05:44;7.78;;;4.00;;
55455;SDS011;63021;52.836;6.376;2023-07-16T09:08:09;6.85;;;3.90;;
55455;SDS011;63021;52.836;6.376;2023-07-16T09:10:35;10.57;;;4.32;;
55455;SDS011;63021;52.836;6.376;2023-07-16T09:13:01;6.95;;;4.05;;
55455;SDS011;63021;52.836;6.376;2023-07-16T09:15:27;7.18;;;3.50;;
55455;SDS011;63021;52.836;6.376;2023-07-16T09:17:54;8.63;;;4.47;;
55455;SDS011;63021;52.836;6.376;2023-07-16T09:20:20;7.68;;;4.45;;
55455;SDS011;63021;52.836;6.376;2023-07-16T09:22:48;13.55;;;3.90;;
55455;SDS011;63021;52.836;6.376;2023-07-16T09:25:14;7.47;;;4.05;;
55455;SDS011;63021;52.836;6.376;2023-07-16T09:27:40;6.15;;;3.70;;
55455;SDS011;63021;52.836;6.376;2023-07-16T09:30:06;12.65;;;3.72;;
55455;SDS011;63021;52.836;6.376;2023-07-16T09:32:35;6.95;;;3.97;;
55455;SDS011;63021;52.836;6.376;2023-07-16T09:35:06;9.65;;;4.55;;
55455;SDS011;63021;52.836;6.376;2023-07-16T09:37:32;6.85;;;4.20;;
55455;SDS011;63021;52.836;6.376;2023-07-16T09:39:59;16.08;;;5.05;;
55455;SDS011;63021;52.836;6.376;2023-07-16T09:42:24;9.18;;;4.25;;
55455;SDS011;63021;52.836;6.376;2023-07-16T09:44:50;7.68;;;3.83;;
55455;SDS011;63021;52.836;6.376;2023-07-16T09:47:19;10.13;;;4.20;;
55455;SDS011;63021;52.836;6.376;2023-07-16T09:49:44;6.55;;;4.22;;
55455;SDS011;63021;52.836;6.376;2023-07-16T09:52:11;11.05;;;5.00;;
55455;SDS011;63021;52.836;6.376;2023-07-16T09:54:38;9.15;;;4.63;;
55455;SDS011;63021;52.836;6.376;2023-07-16T09:57:05;10.90;;;4.90;;
55455;SDS011;63021;52.836;6.376;2023-07-16T09:59:33;9.05;;;4.20;;
55455;SDS011;63021;52.836;6.376;2023-07-16T10:01:59;16.60;;;5.22;;
55455;SDS011;63021;52.836;6.376;2023-07-16T10:04:24;10.75;;;4.32;;
55455;SDS011;63021;52.836;6.376;2023-07-16T10:17:16;15.15;;;4.72;;
55455;SDS011;63021;52.836;6.376;2023-07-16T10:19:50;9.38;;;4.30;;
55455;SDS011;63021;52.836;6.376;2023-07-16T10:27:43;9.32;;;4.50;;
55455;SDS011;63021;52.836;6.376;2023-07-16T10:30:10;6.82;;;3.90;;
55455;SDS011;63021;52.836;6.376;2023-07-16T10:32:36;8.23;;;4.38;;
55455;SDS011;63021;52.836;6.376;2023-07-16T10:35:03;10.45;;;4.35;;
55455;SDS011;63021;52.836;6.376;2023-07-16T10:37:30;7.03;;;3.88;;
55455;SDS011;63021;52.836;6.376;2023-07-16T10:39:56;10.73;;;5.22;;
55455;SDS011;63021;52.836;6.376;2023-07-16T10:42:23;8.40;;;3.50;;
55455;SDS011;63021;52.836;6.376;2023-07-16T10:44:53;10.70;;;4.07;;
55455;SDS011;63021;52.836;6.376;2023-07-16T10:49:48;8.18;;;3.42;;
55455;SDS011;63021;52.836;6.376;2023-07-16T10:52:13;5.80;;;3.58;;
55455;SDS011;63021;52.836;6.376;2023-07-16T10:54:39;6.53;;;3.58;;
55455;SDS011;63021;52.836;6.376;2023-07-16T10:57:06;8.07;;;3.72;;
55455;SDS011;63021;52.836;6.376;2023-07-16T10:59:31;8.73;;;5.03;;
55455;SDS011;63021;52.836;6.376;2023-07-16T11:01:57;7.47;;;3.92;;
55455;SDS011;63021;52.836;6.376;2023-07-16T11:04:23;7.10;;;3.55;;
55455;SDS011;63021;52.836;6.376;2023-07-16T11:06:51;10.10;;;4.20;;
55455;SDS011;63021;52.836;6.376;2023-07-16T11:09:17;9.02;;;4.05;;
55455;SDS011;63021;52.836;6.376;2023-07-16T11:11:42;7.28;;;4.40;;
55455;SDS011;63021;52.836;6.376;2023-07-16T11:14:08;6.40;;;3.63;;
55455;SDS011;63021;52.836;6.376;2023-07-16T11:16:37;12.13;;;4.40;;
55455;SDS011;63021;52.836;6.376;2023-07-16T11:19:04;6.25;;;3.92;;
55455;SDS011;63021;52.836;6.376;2023-07-16T11:21:31;7.57;;;4.18;;
55455;SDS011;63021;52.836;6.376;2023-07-16T11:24:14;6.28;;;4.25;;
55455;SDS011;63021;52.836;6.376;2023-07-16T11:26:48;11.20;;;4.57;;
55455;SDS011;63021;52.836;6.376;2023-07-16T11:29:15;10.55;;;4.30;;
55455;SDS011;63021;52.836;6.376;2023-07-16T11:31:40;6.60;;;3.97;;
55455;SDS011;63021;52.836;6.376;2023-07-16T11:34:07;10.43;;;4.60;;
55455;SDS011;63021;52.836;6.376;2023-07-16T11:36:32;7.28;;;4.22;;
55455;SDS011;63021;52.836;6.376;2023-07-16T11:38:59;9.27;;;5.70;;
55455;SDS011;63021;52.836;6.376;2023-07-16T11:41:24;11.20;;;4.38;;
55455;SDS011;63021;52.836;6.376;2023-07-16T11:43:50;7.80;;;4.55;;
55455;SDS011;63021;52.836;6.376;2023-07-16T11:46:16;5.70;;;4.30;;
55455;SDS011;63021;52.836;6.376;2023-07-16T11:48:42;9.38;;;4.93;;
55455;SDS011;63021;52.836;6.376;2023-07-16T11:51:08;8.00;;;4.43;;
55455;SDS011;63021;52.836;6.376;2023-07-16T11:53:33;6.13;;;4.10;;
55455;SDS011;63021;52.836;6.376;2023-07-16T11:55:59;9.57;;;4.20;;
55455;SDS011;63021;52.836;6.376;2023-07-16T11:58:24;7.53;;;4.22;;
55455;SDS011;63021;52.836;6.376;2023-07-16T12:00:50;10.32;;;4.65;;
55455;SDS011;63021;52.836;6.376;2023-07-16T12:03:16;7.80;;;3.80;;
55455;SDS011;63021;52.836;6.376;2023-07-16T12:05:42;8.35;;;4.10;;
55455;SDS011;63021;52.836;6.376;2023-07-16T12:08:07;9.23;;;3.80;;
55455;SDS011;63021;52.836;6.376;2023-07-16T12:10:39;5.30;;;3.67;;
55455;SDS011;63021;52.836;6.376;2023-07-16T12:13:07;6.35;;;4.00;;
55455;SDS011;63021;52.836;6.376;2023-07-16T12:15:32;5.45;;;4.22;;
55455;SDS011;63021;52.836;6.376;2023-07-16T12:17:58;4.38;;;3.67;;
55455;SDS011;63021;52.836;6.376;2023-07-16T12:20:24;9.38;;;3.97;;
55455;SDS011;63021;52.836;6.376;2023-07-16T12:22:49;7.63;;;3.47;;
55455;SDS011;63021;52.836;6.376;2023-07-16T12:25:15;7.25;;;4.03;;
55455;SDS011;63021;52.836;6.376;2023-07-16T12:27:43;10.23;;;3.78;;
55455;SDS011;63021;52.836;6.376;2023-07-16T12:30:09;14.25;;;5.63;;
55455;SDS011;63021;52.836;6.376;2023-07-16T12:32:35;11.52;;;3.70;;
55455;SDS011;63021;52.836;6.376;2023-07-16T12:35:00;8.90;;;4.43;;
55455;SDS011;63021;52.836;6.376;2023-07-16T12:37:26;10.02;;;4.18;;
55455;SDS011;63021;52.836;6.376;2023-07-16T12:39:51;5.97;;;3.97;;
55455;SDS011;63021;52.836;6.376;2023-07-16T12:42:17;10.07;;;5.38;;
55455;SDS011;63021;52.836;6.376;2023-07-16T12:44:42;11.05;;;3.97;;
55455;SDS011;63021;52.836;6.376;2023-07-16T12:47:08;8.98;;;4.32;;
55455;SDS011;63021;52.836;6.376;2023-07-16T12:49:34;9.55;;;5.38;;
55455;SDS011;63021;52.836;6.376;2023-07-16T12:52:50;8.75;;;4.20;;
55455;SDS011;63021;52.836;6.376;2023-07-16T12:55:15;8.77;;;4.10;;
55455;SDS011;63021;52.836;6.376;2023-07-16T12:57:41;4.47;;;3.40;;
55455;SDS011;63021;52.836;6.376;2023-07-16T13:00:07;10.50;;;4.03;;
55455;SDS011;63021;52.836;6.376;2023-07-16T13:02:34;9.52;;;4.32;;
55455;SDS011;63021;52.836;6.376;2023-07-16T13:05:00;5.70;;;3.22;;
55455;SDS011;63021;52.836;6.376;2023-07-16T13:07:25;6.40;;;2.95;;
55455;SDS011;63021;52.836;6.376;2023-07-16T13:09:50;4.05;;;2.70;;
55455;SDS011;63021;52.836;6.376;2023-07-16T13:12:16;7.03;;;3.10;;
55455;SDS011;63021;52.836;6.376;2023-07-16T13:14:41;4.63;;;2.53;;
55455;SDS011;63021;52.836;6.376;2023-07-16T13:17:07;3.60;;;2.55;;
55455;SDS011;63021;52.836;6.376;2023-07-16T13:19:32;5.75;;;2.75;;
55455;SDS011;63021;52.836;6.376;2023-07-16T13:21:57;4.55;;;2.60;;
55455;SDS011;63021;52.836;6.376;2023-07-16T13:24:23;5.22;;;2.40;;
55455;SDS011;63021;52.836;6.376;2023-07-16T13:26:50;5.20;;;2.80;;
55455;SDS011;63021;52.836;6.376;2023-07-16T13:29:15;5.93;;;2.50;;
55455;SDS011;63021;52.836;6.376;2023-07-16T13:31:41;6.55;;;2.80;;
55455;SDS011;63021;52.836;6.376;2023-07-16T13:34:06;6.53;;;2.88;;
55455;SDS011;63021;52.836;6.376;2023-07-16T13:36:32;8.05;;;2.58;;
55455;SDS011;63021;52.836;6.376;2023-07-16T13:38:57;3.75;;;2.47;;
55455;SDS011;63021;52.836;6.376;2023-07-16T13:41:23;6.30;;;3.15;;
55455;SDS011;63021;52.836;6.376;2023-07-16T13:43:48;10.20;;;3.08;;
55455;SDS011;63021;52.836;6.376;2023-07-16T13:46:14;10.45;;;3.88;;
55455;SDS011;63021;52.836;6.376;2023-07-16T13:48:39;6.22;;;2.70;;
55455;SDS011;63021;52.836;6.376;2023-07-16T13:51:04;4.13;;;3.10;;
55455;SDS011;63021;52.836;6.376;2023-07-16T13:53:30;5.07;;;2.70;;
55455;SDS011;63021;52.836;6.376;2023-07-16T13:55:55;9.05;;;3.50;;
55455;SDS011;63021;52.836;6.376;2023-07-16T13:58:21;6.38;;;2.70;;
55455;SDS011;63021;52.836;6.376;2023-07-16T14:00:46;4.70;;;2.13;;
55455;SDS011;63021;52.836;6.376;2023-07-16T14:03:12;5.60;;;3.15;;
55455;SDS011;63021;52.836;6.376;2023-07-16T14:05:37;4.15;;;2.72;;
55455;SDS011;63021;52.836;6.376;2023-07-16T14:08:03;4.53;;;2.42;;
55455;SDS011;63021;52.836;6.376;2023-07-16T14:10:29;8.20;;;3.13;;
55455;SDS011;63021;52.836;6.376;2023-07-16T14:12:55;5.03;;;2.63;;
55455;SDS011;63021;52.836;6.376;2023-07-16T14:15:20;5.20;;;3.35;;
55455;SDS011;63021;52.836;6.376;2023-07-16T14:17:46;5.72;;;3.53;;
55455;SDS011;63021;52.836;6.376;2023-07-16T14:20:11;6.10;;;3.25;;
55455;SDS011;63021;52.836;6.376;2023-07-16T14:22:37;7.13;;;3.30;;
55455;SDS011;63021;52.836;6.376;2023-07-16T14:25:02;6.63;;;3.40;;
55455;SDS011;63021;52.836;6.376;2023-07-16T14:27:28;5.55;;;2.55;;
55455;SDS011;63021;52.836;6.376;2023-07-16T14:29:54;4.38;;;2.58;;
55455;SDS011;63021;52.836;6.376;2023-07-16T14:32:19;4.88;;;2.33;;
55455;SDS011;63021;52.836;6.376;2023-07-16T14:34:44;6.50;;;2.58;;
55455;SDS011;63021;52.836;6.376;2023-07-16T14:37:10;6.93;;;2.75;;
55455;SDS011;63021;52.836;6.376;2023-07-16T14:39:35;6.32;;;2.60;;
55455;SDS011;63021;52.836;6.376;2023-07-16T14:42:01;7.20;;;2.50;;
55455;SDS011;63021;52.836;6.376;2023-07-16T14:44:28;5.95;;;2.42;;
55455;SDS011;63021;52.836;6.376;2023-07-16T14:46:54;5.57;;;2.08;;
55455;SDS011;63021;52.836;6.376;2023-07-16T14:49:20;4.93;;;1.90;;
55455;SDS011;63021;52.836;6.376;2023-07-16T14:51:45;6.65;;;2.42;;
55455;SDS011;63021;52.836;6.376;2023-07-16T14:54:11;8.32;;;2.78;;
55455;SDS011;63021;52.836;6.376;2023-07-16T14:56:37;5.20;;;2.50;;
55455;SDS011;63021;52.836;6.376;2023-07-16T14:59:02;7.40;;;2.20;;